Time;durP1;ratioP1;P1;durP2;ratioP2;P2;SDS_P1;SDS_P2;PMS_P1;PMS_P2;Temp;Humidity;BMP_temperature;BMP_pressure;BME280_temperature;BME280_humidity;BME280_pressure;Samples;Min_cycle;Max_cycle;Signal;HPM_P1;HPM_P2
2023/09/16 00:00:38;;;;;;;12.00;9.40;;;;;;;21.22;64.08;94964.81;4186779;28;20041;-76
2023/09/16 00:02:40;;;;;;;12.82;10.00;;;;;;;21.19;64.04;94960.75;4187513;28;20131;-76
2023/09/16 00:04:42;;;;;;;11.23;10.00;;;;;;;21.19;63.92;94963.41;4193236;28;20044;-75
2023/09/16 00:06:43;;;;;;;13.80;10.32;;;;;;;21.20;64.11;94958.88;4191388;28;20124;-74
2023/09/16 00:08:45;;;;;;;11.35;9.35;;;;;;;21.23;63.98;94953.94;4195719;28;20107;-74
2023/09/16 00:10:48;;;;;;;11.25;9.82;;;;;;;21.22;64.00;94954.16;4193158;28;20089;-75
2023/09/16 00:12:50;;;;;;;12.02;10.07;;;;;;;21.21;64.20;94944.56;4194091;28;20088;-74
2023/09/16 00:14:52;;;;;;;11.20;9.73;;;;;;;21.18;64.23;94952.97;4186530;28;20045;-75
2023/09/16 00:16:55;;;;;;;12.02;10.18;;;;;;;21.14;64.08;94944.59;4192115;28;20137;-74
2023/09/16 00:18:57;;;;;;;12.93;10.05;;;;;;;21.18;63.93;94947.63;4192557;28;20052;-74
2023/09/16 00:20:59;;;;;;;13.15;10.75;;;;;;;21.21;64.02;94950.69;4187040;28;20048;-75
2023/09/16 00:23:04;;;;;;;12.18;10.60;;;;;;;21.19;64.29;94952.75;4199786;28;20141;-75
2023/09/16 00:25:08;;;;;;;13.57;10.95;;;;;;;21.22;64.21;94946.16;4177791;28;20041;-75
2023/09/16 00:27:10;;;;;;;10.63;9.50;;;;;;;21.20;64.34;94953.56;4193210;28;20056;-75
2023/09/16 00:29:12;;;;;;;12.30;10.45;;;;;;;21.19;64.22;94952.75;4190731;28;20159;-77
2023/09/16 00:31:14;;;;;;;12.93;10.02;;;;;;;21.19;64.06;94959.94;4190135;28;20048;-75
2023/09/16 00:33:16;;;;;;;11.70;10.20;;;;;;;21.19;64.10;94963.41;4195624;28;20056;-74
2023/09/16 00:35:18;;;;;;;12.80;10.00;;;;;;;21.18;63.68;94966.28;4189779;28;20040;-76
2023/09/16 00:37:20;;;;;;;12.95;10.60;;;;;;;21.14;63.80;94976.53;4174648;28;20060;-76
2023/09/16 00:39:23;;;;;;;10.02;9.13;;;;;;;21.17;64.08;94973.47;4190756;28;20114;-79
2023/09/16 00:41:25;;;;;;;12.40;10.25;;;;;;;21.13;64.27;94966.94;4191857;28;20145;-74
2023/09/16 00:43:27;;;;;;;13.27;10.45;;;;;;;21.13;64.11;94966.94;4177310;28;20048;-76
2023/09/16 00:45:29;;;;;;;11.95;10.45;;;;;;;21.12;64.47;94972.47;4193264;28;20059;-75
2023/09/16 00:47:33;;;;;;;12.88;11.27;;;;;;;20.99;64.97;94965.41;4196266;28;20359;-76
2023/09/16 00:49:35;;;;;;;13.85;11.52;;;;;;;20.92;65.00;94978.78;4161397;28;20053;-77
2023/09/16 00:51:41;;;;;;;16.20;12.25;;;;;;;20.83;65.63;94980.91;4168979;28;20069;-74
2023/09/16 00:53:45;;;;;;;14.15;12.02;;;;;;;20.80;66.12;94976.00;4175869;28;20060;-76
2023/09/16 00:55:48;;;;;;;13.63;11.75;;;;;;;20.82;66.19;94968.63;4176480;28;20053;-76
2023/09/16 00:57:50;;;;;;;13.23;11.93;;;;;;;20.85;66.05;94962.84;4190794;28;20045;-76
2023/09/16 00:59:53;;;;;;;14.13;12.02;;;;;;;20.88;65.97;94961.59;4176162;28;20072;-76
2023/09/16 01:01:55;;;;;;;16.55;11.30;;;;;;;20.88;66.03;94950.94;4190703;28;20052;-75
2023/09/16 01:03:58;;;;;;;13.23;11.37;;;;;;;20.91;65.85;94953.19;4166242;28;20091;-75
2023/09/16 01:06:00;;;;;;;18.23;12.52;;;;;;;20.93;65.80;94943.16;4175751;28;20328;-74
2023/09/16 01:08:03;;;;;;;15.07;11.85;;;;;;;20.95;65.67;94946.41;4181998;28;20075;-75
2023/09/16 01:10:05;;;;;;;15.48;11.15;;;;;;;20.96;65.75;94942.69;4171171;28;20140;-77
2023/09/16 01:12:08;;;;;;;13.43;11.77;;;;;;;20.96;65.75;94936.56;4188258;28;20048;-76
2023/09/16 01:14:11;;;;;;;16.20;11.90;;;;;;;20.97;65.89;94933.69;4190406;28;20244;-74
2023/09/16 01:16:37;;;;;;;13.35;11.55;;;;;;;20.95;65.71;94927.78;4169999;28;20068;-75
2023/09/16 01:18:41;;;;;;;13.48;11.25;;;;;;;20.98;65.94;94926.50;4185624;28;20356;-76
2023/09/16 01:20:43;;;;;;;14.07;12.50;;;;;;;20.96;65.95;94920.59;4159617;28;20057;-75
2023/09/16 01:22:45;;;;;;;13.65;12.35;;;;;;;20.94;65.89;94928.78;4166967;28;20056;-75
2023/09/16 01:24:54;;;;;;;17.67;12.48;;;;;;;20.91;65.92;94923.06;4175218;28;20056;-75
2023/09/16 01:26:56;;;;;;;16.58;12.35;;;;;;;20.85;66.38;94928.25;4160080;28;20157;-76
2023/09/16 01:28:57;;;;;;;13.45;12.05;;;;;;;20.81;66.33;94935.03;4192122;28;20052;-75
2023/09/16 01:31:00;;;;;;;16.88;12.55;;;;;;;20.78;66.66;94931.97;4183630;28;20143;-76
2023/09/16 01:33:21;;;;;;;14.70;13.05;;;;;;;20.77;66.89;94933.03;4179522;28;20138;-76
2023/09/16 01:35:24;;;;;;;14.15;12.70;;;;;;;20.75;66.92;94930.56;4180436;28;20052;-75
2023/09/16 01:37:25;;;;;;;15.20;12.98;;;;;;;20.72;67.08;94928.34;4177422;28;20049;-73
2023/09/16 01:39:29;;;;;;;14.85;13.30;;;;;;;20.73;67.15;94950.44;4181330;28;20154;-74
2023/09/16 01:41:34;;;;;;;14.95;12.50;;;;;;;20.72;67.42;94946.19;4194283;28;20106;-75
2023/09/16 01:43:37;;;;;;;14.88;12.48;;;;;;;20.69;67.46;94949.25;4166067;28;20053;-73
2023/09/16 01:45:43;;;;;;;15.93;13.17;;;;;;;20.68;67.18;94952.97;4179936;28;20048;-76
2023/09/16 01:47:46;;;;;;;18.35;13.20;;;;;;;20.73;67.14;94955.78;4164103;28;20654;-73
2023/09/16 01:49:48;;;;;;;16.00;12.95;;;;;;;20.75;67.01;94951.06;4185432;28;20102;-74
2023/09/16 01:51:50;;;;;;;17.80;13.15;;;;;;;20.71;67.14;94963.97;4176084;28;20381;-73
2023/09/16 01:53:52;;;;;;;15.05;13.15;;;;;;;20.62;66.96;94959.94;4193481;28;20041;-75
2023/09/16 01:55:53;;;;;;;15.63;12.63;;;;;;;20.55;67.54;94967.13;4191442;28;20058;-77
2023/09/16 01:57:55;;;;;;;15.35;13.75;;;;;;;20.27;68.37;94959.53;4189790;28;20076;-74
2023/09/16 01:59:57;;;;;;;18.58;14.45;;;;;;;19.81;70.12;94967.50;4190232;28;20495;-77
2023/09/16 02:01:59;;;;;;;17.15;14.23;;;;;;;19.77;70.79;94962.81;4191951;28;20076;-74
2023/09/16 02:04:01;;;;;;;15.32;13.70;;;;;;;19.83;70.70;94959.28;4190906;28;20502;-76
2023/09/16 02:06:05;;;;;;;18.05;14.18;;;;;;;19.98;70.13;94961.69;4181180;28;20074;-75
2023/09/16 02:08:07;;;;;;;16.02;13.48;;;;;;;20.10;69.67;94965.31;4192448;28;20082;-76
2023/09/16 02:10:12;;;;;;;14.95;13.25;;;;;;;20.18;69.31;94956.31;4187099;28;20045;-75
2023/09/16 02:12:14;;;;;;;15.50;13.90;;;;;;;20.30;68.92;94969.72;4193490;28;20056;-76
2023/09/16 02:14:18;;;;;;;17.70;13.75;;;;;;;20.36;68.74;94964.38;4197723;28;20047;-75
2023/09/16 02:16:19;;;;;;;;;;;;;;;20.39;68.53;94965.78;4173112;28;20045;-76
2023/09/16 02:18:21;;;;;;;17.08;13.75;;;;;;;20.36;68.53;94969.69;4191506;28;19920;-75
2023/09/16 02:20:23;;;;;;;18.33;13.93;;;;;;;20.28;68.50;94967.28;4191203;28;20065;-74
2023/09/16 02:22:25;;;;;;;15.32;13.73;;;;;;;20.29;68.53;94962.78;4192434;28;20098;-74
2023/09/16 02:24:27;;;;;;;15.57;14.07;;;;;;;20.31;68.19;94964.19;4167503;28;20045;-72
2023/09/16 02:26:28;;;;;;;20.25;15.38;;;;;;;20.23;68.06;94965.25;4184293;28;20051;-75
2023/09/16 02:28:30;;;;;;;16.13;14.43;;;;;;;20.08;68.66;94961.25;4186015;28;20569;-76
2023/09/16 02:30:32;;;;;;;22.67;14.70;;;;;;;19.94;68.84;94966.63;4191279;28;20456;-76
2023/09/16 02:32:34;;;;;;;17.00;13.82;;;;;;;19.82;68.88;94965.63;4189132;28;20408;-76
2023/09/16 02:34:36;;;;;;;17.48;13.73;;;;;;;19.63;69.28;94972.63;4177877;28;20044;-76
2023/09/16 02:36:37;;;;;;;16.35;14.75;;;;;;;19.23;70.47;94973.50;4193367;28;20054;-75
2023/09/16 02:38:39;;;;;;;16.08;13.88;;;;;;;19.11;71.24;94979.66;4185684;28;20048;-75
2023/09/16 02:40:41;;;;;;;18.55;14.32;;;;;;;18.98;71.60;94978.63;4188213;28;20396;-77
2023/09/16 02:42:44;;;;;;;17.08;14.13;;;;;;;18.57;72.86;94976.13;4191561;28;20060;-77
2023/09/16 02:44:45;;;;;;;16.40;14.77;;;;;;;18.50;73.69;94976.09;4191789;28;20044;-75
2023/09/16 02:46:47;;;;;;;16.63;14.60;;;;;;;18.42;73.67;94984.25;4191998;28;20480;-75
2023/09/16 02:48:49;;;;;;;16.52;14.60;;;;;;;18.33;74.30;94993.41;4185874;28;20048;-74
2023/09/16 02:50:51;;;;;;;17.40;15.10;;;;;;;18.22;74.75;94986.84;4175351;28;20062;-74
2023/09/16 02:52:53;;;;;;;16.52;13.80;;;;;;;18.34;74.51;94995.03;4198689;28;20068;-74
2023/09/16 02:54:55;;;;;;;19.13;14.27;;;;;;;18.48;73.55;94995.91;4188737;28;20546;-74
2023/09/16 02:56:57;;;;;;;14.82;13.05;;;;;;;18.47;73.41;94995.06;4177958;28;20044;-75
2023/09/16 02:59:00;;;;;;;14.82;13.25;;;;;;;18.59;73.54;94998.75;4189348;28;20395;-75
2023/09/16 03:01:10;;;;;;;;;;;;;;;18.72;72.70;94999.81;4192770;28;20083;-77
2023/09/16 03:03:12;;;;;;;15.65;13.57;;;;;;;18.87;72.24;94999.66;4194102;28;20359;-74
2023/09/16 03:05:15;;;;;;;16.02;13.48;;;;;;;19.02;71.65;94995.78;4180254;28;20124;-75
2023/09/16 03:07:16;;;;;;;15.27;13.77;;;;;;;19.17;71.18;95008.84;4193993;28;20146;-75
2023/09/16 03:09:19;;;;;;;15.02;12.13;;;;;;;19.30;70.78;94999.25;4193190;28;20056;-75
2023/09/16 03:11:21;;;;;;;16.50;12.63;;;;;;;19.35;70.48;94991.47;4187388;28;20053;-75
2023/09/16 03:13:23;;;;;;;14.10;12.63;;;;;;;19.39;70.17;95000.66;4191482;28;20048;-75
2023/09/16 03:15:25;;;;;;;15.38;12.05;;;;;;;19.44;69.68;94992.88;4191849;28;20052;-75
2023/09/16 03:17:26;;;;;;;13.40;12.10;;;;;;;19.55;69.57;94999.41;4192546;28;20079;-75
2023/09/16 03:19:30;;;;;;;16.25;12.02;;;;;;;19.65;69.11;95000.59;4204913;28;20098;-76
2023/09/16 03:21:32;;;;;;;13.48;12.20;;;;;;;19.67;68.82;94992.44;4191202;28;20052;-75
2023/09/16 03:23:33;;;;;;;13.77;12.05;;;;;;;19.74;68.74;94989.78;4192713;28;20059;-75
2023/09/16 03:25:35;;;;;;;14.13;11.35;;;;;;;19.63;68.77;94988.56;4185339;28;20102;-76
2023/09/16 03:27:37;;;;;;;12.85;11.35;;;;;;;19.61;68.93;94987.94;4190888;28;20135;-77
2023/09/16 03:29:39;;;;;;;17.02;11.75;;;;;;;19.64;68.95;94990.22;4189527;28;20499;-77
2023/09/16 03:31:41;;;;;;;15.73;11.35;;;;;;;19.68;68.99;94986.13;4184409;28;20151;-75
2023/09/16 03:33:43;;;;;;;13.75;12.35;;;;;;;19.69;68.48;94990.38;4196228;28;20460;-74
2023/09/16 03:35:45;;;;;;;13.63;11.38;;;;;;;19.67;68.73;94992.44;4195426;28;20098;-77
2023/09/16 03:37:46;;;;;;;13.55;11.85;;;;;;;19.37;69.80;95000.06;4198431;28;20369;-74
2023/09/16 03:39:48;;;;;;;14.88;12.38;;;;;;;19.14;70.80;95003.94;4199272;28;20128;-74
2023/09/16 03:41:50;;;;;;;13.20;11.88;;;;;;;19.16;70.74;95004.53;4201573;28;20056;-75
2023/09/16 03:43:52;;;;;;;13.40;11.68;;;;;;;19.29;70.64;95005.56;4199504;28;20049;-72
2023/09/16 03:45:54;;;;;;;15.75;12.90;;;;;;;19.39;70.19;95005.97;4174359;28;20053;-75
2023/09/16 03:47:56;;;;;;;14.55;12.65;;;;;;;19.43;69.84;95004.53;4188023;28;20476;-74
2023/09/16 03:49:58;;;;;;;14.18;12.55;;;;;;;19.45;69.94;95013.13;4187123;28;20352;-74
2023/09/16 03:52:00;;;;;;;15.60;12.77;;;;;;;19.49;69.93;95014.34;4183187;28;20524;-74
2023/09/16 03:54:02;;;;;;;15.30;12.82;;;;;;;19.46;70.08;95013.94;4183955;28;20500;-74
2023/09/16 03:56:08;;;;;;;15.77;14.17;;;;;;;19.47;70.17;95023.53;4190777;28;20127;-74
2023/09/16 03:58:10;;;;;;;15.90;12.63;;;;;;;19.54;70.05;95022.50;4193742;28;20048;-74
2023/09/16 04:00:13;;;;;;;16.73;12.70;;;;;;;19.64;69.77;95020.25;4190771;28;20052;-76
2023/09/16 04:02:15;;;;;;;14.02;12.60;;;;;;;19.71;69.51;95022.13;4202250;28;20048;-75
2023/09/16 04:04:17;;;;;;;14.85;12.27;;;;;;;19.76;69.44;95022.28;4182240;28;20053;-74
2023/09/16 04:06:19;;;;;;;15.32;13.70;;;;;;;19.67;69.79;95029.66;4189243;28;20078;-75
2023/09/16 04:08:20;;;;;;;14.38;12.88;;;;;;;19.56;69.94;95033.75;4193127;28;20045;-75
2023/09/16 04:10:22;;;;;;;14.98;13.40;;;;;;;19.47;70.68;95029.69;4179700;28;20640;-76
2023/09/16 04:12:24;;;;;;;18.33;13.82;;;;;;;19.41;71.29;95035.81;4180114;28;20496;-77
2023/09/16 04:14:27;;;;;;;16.02;14.27;;;;;;;19.31;72.22;95035.41;4191344;28;20121;-76
2023/09/16 04:16:28;;;;;;;21.40;14.80;;;;;;;19.34;72.61;95037.66;4196420;28;20049;-74
2023/09/16 04:18:31;;;;;;;15.82;14.13;;;;;;;19.43;72.67;95042.56;4196264;28;20060;-75
2023/09/16 04:20:32;;;;;;;16.73;15.02;;;;;;;19.52;73.17;95043.16;4195492;28;20102;-75
2023/09/16 04:22:34;;;;;;;15.80;14.23;;;;;;;19.59;73.81;95038.63;4177767;28;20130;-74
2023/09/16 04:24:36;;;;;;;16.25;14.60;;;;;;;19.56;74.39;95039.06;4194048;28;20060;-75
2023/09/16 04:26:38;;;;;;;17.90;14.82;;;;;;;19.58;74.26;95031.72;4178239;28;20450;-75
2023/09/16 04:28:40;;;;;;;19.40;15.73;;;;;;;19.57;74.86;95038.03;4186633;28;20076;-75
2023/09/16 04:30:48;;;;;;;17.77;15.98;;;;;;;19.48;75.75;95041.13;4171635;28;20053;-76
2023/09/16 04:32:50;;;;;;;19.08;15.98;;;;;;;19.44;75.72;95040.69;4164844;28;20107;-74
2023/09/16 04:34:57;;;;;;;21.42;16.35;;;;;;;19.37;75.49;95040.72;4186395;28;20045;-76
2023/09/16 04:36:59;;;;;;;19.65;15.95;;;;;;;19.38;75.92;95046.84;4185710;28;20494;-75
2023/09/16 04:39:01;;;;;;;20.23;15.75;;;;;;;19.43;76.26;95044.41;4193307;28;20102;-75
2023/09/16 04:41:03;;;;;;;18.95;15.95;;;;;;;19.43;75.95;95061.16;4194211;28;20364;-75
2023/09/16 04:43:06;;;;;;;22.30;16.20;;;;;;;19.48;76.00;95057.88;4177280;28;20138;-76
2023/09/16 04:45:08;;;;;;;19.48;16.52;;;;;;;19.49;76.21;95045.41;4196750;28;20048;-74
2023/09/16 04:47:10;;;;;;;20.73;16.88;;;;;;;19.49;77.25;95058.69;4202653;28;20049;-74
2023/09/16 04:49:12;;;;;;;18.65;15.27;;;;;;;19.49;76.62;95054.22;4189022;28;20045;-75
2023/09/16 04:51:14;;;;;;;17.38;15.63;;;;;;;19.51;75.73;95046.84;4189864;28;20140;-75
2023/09/16 04:53:16;;;;;;;18.27;16.15;;;;;;;19.53;75.91;95051.94;4174672;28;20056;-75
2023/09/16 04:55:18;;;;;;;19.27;17.27;;;;;;;19.50;76.18;95049.69;4192178;28;20048;-75
2023/09/16 04:57:20;;;;;;;22.73;16.75;;;;;;;19.49;76.34;95051.56;4190726;28;20113;-76
2023/09/16 04:59:22;;;;;;;18.55;16.45;;;;;;;19.47;76.27;95053.59;4190167;28;20497;-76
2023/09/16 05:01:26;;;;;;;18.60;16.77;;;;;;;19.37;76.67;95051.34;4185663;28;20076;-75
2023/09/16 05:03:28;;;;;;;18.90;16.83;;;;;;;19.37;76.75;95056.66;4194391;28;20091;-74
2023/09/16 05:05:30;;;;;;;19.90;17.75;;;;;;;19.40;76.77;95058.91;4205196;28;20062;-77
2023/09/16 05:07:32;;;;;;;19.58;17.33;;;;;;;19.43;76.91;95063.00;4182579;28;20498;-76
2023/09/16 05:09:34;;;;;;;20.38;18.38;;;;;;;19.45;76.62;95058.28;4177089;28;20052;-74
2023/09/16 05:11:36;;;;;;;20.77;18.20;;;;;;;19.50;76.78;95060.34;4191968;28;20052;-76
2023/09/16 05:13:38;;;;;;;21.40;19.10;;;;;;;19.49;76.91;95048.91;4195451;28;20048;-74
2023/09/16 05:15:40;;;;;;;20.00;18.00;;;;;;;19.52;76.95;95053.78;4194855;28;20079;-76
2023/09/16 05:17:41;;;;;;;19.77;17.77;;;;;;;19.55;77.17;95057.88;4180362;28;20052;-73
2023/09/16 05:19:43;;;;;;;22.67;18.50;;;;;;;19.54;77.30;95057.06;4199144;28;20056;-74
2023/09/16 05:21:45;;;;;;;26.05;20.10;;;;;;;19.55;77.09;95052.56;4178899;28;20084;-75
2023/09/16 05:23:47;;;;;;;21.75;19.50;;;;;;;19.49;77.61;95048.06;4190832;28;20045;-77
2023/09/16 05:25:49;;;;;;;21.50;19.20;;;;;;;19.45;77.56;95058.28;4190880;28;20404;-76
2023/09/16 05:27:51;;;;;;;21.00;18.40;;;;;;;19.45;77.42;95066.25;4179746;28;20060;-77
2023/09/16 05:29:54;;;;;;;22.70;19.40;;;;;;;19.43;77.18;95077.09;4183754;28;20044;-77
2023/09/16 05:31:59;;;;;;;20.38;18.38;;;;;;;19.44;77.47;95075.25;4196647;28;20060;-77
2023/09/16 05:34:01;;;;;;;22.17;18.50;;;;;;;19.41;77.89;95080.97;4197482;28;20407;-75
2023/09/16 05:36:03;;;;;;;21.63;19.40;;;;;;;19.41;77.92;95081.78;4196894;28;20134;-76
2023/09/16 05:38:05;;;;;;;20.33;18.10;;;;;;;19.38;77.78;95082.22;4188786;28;20079;-78
2023/09/16 05:40:07;;;;;;;22.40;19.40;;;;;;;19.44;78.20;95091.19;4191922;28;20157;-76
2023/09/16 05:42:09;;;;;;;23.42;19.38;;;;;;;19.49;78.26;95085.25;4194203;28;20048;-76
2023/09/16 05:44:10;;;;;;;24.23;19.83;;;;;;;19.51;78.38;95073.41;4195781;28;20052;-74
2023/09/16 05:46:12;;;;;;;30.30;21.27;;;;;;;19.52;78.86;95075.03;4187131;28;20045;-77
2023/09/16 05:48:14;;;;;;;22.55;20.15;;;;;;;19.50;78.84;95086.91;4196464;28;20124;-75
2023/09/16 05:50:16;;;;;;;23.90;20.35;;;;;;;19.48;78.66;95088.94;4196004;28;20930;-80
2023/09/16 05:52:18;;;;;;;23.95;21.40;;;;;;;19.44;78.58;95097.34;4201293;28;20153;-78
2023/09/16 05:54:20;;;;;;;23.63;21.23;;;;;;;19.43;78.48;95103.66;4187352;28;20101;-75
2023/09/16 05:56:22;;;;;;;24.17;21.63;;;;;;;19.45;78.58;95095.50;4193589;28;20044;-76
2023/09/16 05:58:24;;;;;;;25.70;20.83;;;;;;;19.50;78.76;95097.53;4192458;28;20048;-78
2023/09/16 06:00:25;;;;;;;24.70;22.05;;;;;;;19.49;78.36;95096.72;4183439;28;20335;-76
2023/09/16 06:02:28;;;;;;;25.75;22.00;;;;;;;19.49;78.29;95096.72;4194449;28;20127;-77
2023/09/16 06:04:30;;;;;;;26.10;22.30;;;;;;;19.47;78.14;95092.59;4195861;28;20098;-76
2023/09/16 06:06:32;;;;;;;23.80;21.13;;;;;;;19.51;78.37;95091.19;4194018;28;20083;-76
2023/09/16 06:08:34;;;;;;;24.75;22.10;;;;;;;19.52;77.57;95092.84;4192711;28;20055;-75
2023/09/16 06:10:36;;;;;;;24.27;21.75;;;;;;;19.50;78.08;95090.38;4193209;28;20071;-76
2023/09/16 06:12:38;;;;;;;26.80;24.08;;;;;;;19.28;79.19;95083.63;4194501;28;20119;-76
2023/09/16 06:14:40;;;;;;;25.50;22.83;;;;;;;19.24;79.51;95081.38;4192831;28;20079;-76
2023/09/16 06:16:41;;;;;;;24.83;22.33;;;;;;;19.25;79.88;95084.84;4192236;28;20037;-77
2023/09/16 06:18:43;;;;;;;25.85;23.05;;;;;;;19.24;80.05;95083.22;4194437;28;20045;-75
2023/09/16 06:20:46;;;;;;;26.05;22.98;;;;;;;19.30;80.12;95084.25;4189786;28;20075;-76
2023/09/16 06:22:47;;;;;;;25.88;22.88;;;;;;;19.35;80.07;95071.16;4167328;28;20125;-77
2023/09/16 06:24:51;;;;;;;27.35;22.90;;;;;;;19.23;80.00;95068.31;4176698;28;20527;-74
2023/09/16 06:26:53;;;;;;;31.67;25.60;;;;;;;19.15;80.45;95073.81;4177951;28;20051;-78
2023/09/16 06:28:54;;;;;;;27.73;24.70;;;;;;;19.14;80.85;95082.78;4169046;28;20503;-77
2023/09/16 06:30:56;;;;;;;28.02;24.98;;;;;;;19.13;81.26;95076.66;4193067;28;20071;-76
2023/09/16 06:32:58;;;;;;;26.35;23.75;;;;;;;19.18;81.64;95084.84;4192579;28;20557;-77
2023/09/16 06:35:00;;;;;;;30.23;23.95;;;;;;;19.24;81.57;95086.69;4193350;28;20053;-76
2023/09/16 06:37:05;;;;;;;26.90;24.20;;;;;;;19.29;81.46;95090.56;4193029;28;20055;-77
2023/09/16 06:39:07;;;;;;;27.02;24.13;;;;;;;19.35;81.28;95095.06;4175031;28;20057;-78
2023/09/16 06:41:09;;;;;;;25.80;23.10;;;;;;;19.40;80.80;95103.25;4194367;28;20474;-75
2023/09/16 06:43:11;;;;;;;26.20;23.50;;;;;;;19.43;80.75;95108.16;4186547;28;20068;-78
2023/09/16 06:45:13;;;;;;;29.15;23.45;;;;;;;19.42;80.38;95099.38;4182738;28;20460;-76
2023/09/16 06:47:14;;;;;;;26.17;23.38;;;;;;;19.52;80.15;95103.47;4170171;28;20453;-76
2023/09/16 06:49:19;;;;;;;27.10;23.63;;;;;;;19.50;80.48;95105.50;4167658;28;20088;-76
2023/09/16 06:51:21;;;;;;;25.40;22.70;;;;;;;19.54;80.03;95114.69;4181688;28;20472;-76
2023/09/16 06:53:24;;;;;;;24.85;21.75;;;;;;;19.34;80.16;95114.69;4190839;28;20059;-75
2023/09/16 06:55:26;;;;;;;28.25;23.23;;;;;;;19.20;80.84;95119.97;4184132;28;20041;-75
2023/09/16 06:57:28;;;;;;;27.65;24.08;;;;;;;19.07;81.48;95132.44;4191519;28;21465;-75
2023/09/16 06:59:30;;;;;;;27.83;24.48;;;;;;;18.94;82.53;95133.22;4192834;28;20137;-79
2023/09/16 07:01:32;;;;;;;27.80;24.80;;;;;;;18.89;83.33;95130.34;4198184;28;20094;-76
2023/09/16 07:03:34;;;;;;;32.92;26.38;;;;;;;18.97;83.56;95124.84;4205420;28;20048;-76
2023/09/16 07:05:36;;;;;;;30.23;25.35;;;;;;;19.03;82.90;95111.56;4191795;28;20446;-78
2023/09/16 07:07:38;;;;;;;30.30;25.45;;;;;;;19.10;82.59;95110.78;4185577;28;20047;-78
2023/09/16 07:09:40;;;;;;;29.55;26.23;;;;;;;19.02;82.70;95104.63;4191052;28;20124;-76
2023/09/16 07:11:42;;;;;;;31.83;26.63;;;;;;;19.02;83.17;95111.78;4198113;28;20059;-78
2023/09/16 07:13:44;;;;;;;32.67;28.27;;;;;;;18.98;83.15;95126.47;4195961;28;20124;-76
2023/09/16 07:15:55;;;;;;;35.67;28.02;;;;;;;18.99;83.79;95120.97;4196401;28;20064;-75
2023/09/16 07:17:57;;;;;;;31.83;27.83;;;;;;;19.03;83.51;95118.72;4178876;28;20383;-75
2023/09/16 07:19:59;;;;;;;31.40;28.00;;;;;;;19.11;82.36;95109.75;4184450;28;20127;-76
2023/09/16 07:22:01;;;;;;;33.40;29.67;;;;;;;19.02;82.40;95107.28;4195383;28;20102;-77
2023/09/16 07:24:03;;;;;;;40.90;29.58;;;;;;;18.97;83.24;95104.44;4195736;28;20048;-77
2023/09/16 07:26:05;;;;;;;34.22;30.50;;;;;;;18.93;84.11;95112.97;4186298;28;20053;-77
2023/09/16 07:28:07;;;;;;;33.33;29.73;;;;;;;18.95;84.07;95110.94;4196429;28;20045;-78
2023/09/16 07:30:09;;;;;;;35.47;30.85;;;;;;;19.05;84.43;95110.56;4179684;28;20049;-76
2023/09/16 07:32:11;;;;;;;31.20;27.13;;;;;;;19.17;84.24;95101.81;4185833;28;20574;-78
2023/09/16 07:34:15;;;;;;;30.88;26.90;;;;;;;19.19;83.25;95102.41;4198590;28;20094;-78
2023/09/16 07:36:17;;;;;;;29.80;25.15;;;;;;;19.20;82.60;95096.06;4198367;28;20045;-78
2023/09/16 07:38:19;;;;;;;28.92;25.73;;;;;;;19.15;82.76;95095.88;4188374;28;20057;-78
2023/09/16 07:40:21;;;;;;;29.30;25.95;;;;;;;19.12;83.43;95085.66;4192241;28;20048;-78
2023/09/16 07:42:23;;;;;;;28.85;25.83;;;;;;;19.14;83.71;95101.38;4195096;28;20052;-77
2023/09/16 07:44:26;;;;;;;32.22;28.70;;;;;;;19.13;84.08;95108.53;4195858;28;20106;-79
2023/09/16 07:46:28;;;;;;;31.13;27.83;;;;;;;19.16;83.46;95128.56;4185055;28;20049;-79
2023/09/16 07:48:31;;;;;;;31.75;28.00;;;;;;;19.26;83.65;95136.16;4173950;28;20286;-77
2023/09/16 07:50:34;;;;;;;30.10;26.85;;;;;;;19.15;82.48;95138.38;4196049;28;20045;-75
2023/09/16 07:52:36;;;;;;;31.13;27.80;;;;;;;19.20;82.33;95130.59;4196289;28;20048;-76
2023/09/16 07:54:38;;;;;;;32.45;29.00;;;;;;;19.20;82.60;95135.09;4196256;28;20412;-76
2023/09/16 07:56:40;;;;;;;32.35;28.33;;;;;;;19.18;82.32;95139.78;4194820;28;20044;-78
2023/09/16 07:58:41;;;;;;;33.55;29.02;;;;;;;19.22;82.90;95141.84;4191433;28;20044;-77
2023/09/16 08:00:43;;;;;;;35.05;31.45;;;;;;;19.23;83.20;95140.84;4196415;28;20055;-75
2023/09/16 08:02:46;;;;;;;35.17;30.85;;;;;;;19.31;83.65;95139.81;4197467;28;20391;-76
2023/09/16 08:04:48;;;;;;;34.67;31.02;;;;;;;19.29;82.91;95141.03;4196713;28;20044;-76
2023/09/16 08:06:50;;;;;;;33.47;30.15;;;;;;;19.36;82.86;95134.72;4196598;28;20044;-77
2023/09/16 08:08:54;;;;;;;34.17;30.48;;;;;;;19.47;82.80;95129.81;4194777;28;20048;-76
2023/09/16 08:10:56;;;;;;;34.28;30.88;;;;;;;19.48;82.15;95132.28;4186585;28;20102;-76
2023/09/16 08:12:57;;;;;;;35.13;31.13;;;;;;;19.51;82.15;95123.91;4188527;28;20056;-77
2023/09/16 08:15:01;;;;;;;33.60;30.08;;;;;;;19.40;81.82;95129.81;4184131;28;20205;-77
2023/09/16 08:17:03;;;;;;;;;;;;;;;19.45;82.11;95132.69;4197781;28;20476;-79
2023/09/16 08:19:05;;;;;;;34.10;30.63;;;;;;;19.53;82.00;95129.00;4191688;28;19931;-76
2023/09/16 08:21:09;;;;;;;33.00;29.48;;;;;;;19.59;80.90;95121.03;4192242;28;20053;-79
2023/09/16 08:23:12;;;;;;;32.25;28.52;;;;;;;19.63;80.72;95113.47;4192861;28;20150;-76
2023/09/16 08:25:13;;;;;;;34.20;30.60;;;;;;;19.83;81.04;95126.75;4195007;28;20203;-77
2023/09/16 08:27:15;;;;;;;31.73;28.42;;;;;;;19.87;79.67;95125.34;4190740;28;20053;-79
2023/09/16 08:29:17;;;;;;;33.10;29.65;;;;;;;19.87;79.70;95125.34;4192278;28;20110;-77
2023/09/16 08:31:19;;;;;;;31.73;28.27;;;;;;;19.80;79.47;95135.97;4187157;28;20153;-76
2023/09/16 08:33:21;;;;;;;32.15;28.67;;;;;;;19.71;79.27;95136.41;4187229;28;20056;-76
2023/09/16 08:35:25;;;;;;;32.85;29.40;;;;;;;19.74;79.97;95138.66;4180029;28;20045;-78
2023/09/16 08:37:26;;;;;;;;;;;;;;;19.86;80.21;95134.34;4193883;28;20044;-77
2023/09/16 08:39:28;;;;;;;29.52;26.42;;;;;;;19.65;78.55;95138.81;4194660;28;19931;-79
2023/09/16 08:41:52;;;;;;;28.98;26.15;;;;;;;19.56;78.92;95142.69;4169655;28;20049;-77
2023/09/16 08:43:58;;;;;;;32.35;28.95;;;;;;;19.44;80.22;95149.63;4194341;28;20066;-76
2023/09/16 08:46:02;;;;;;;30.20;27.25;;;;;;;19.54;80.27;95142.09;4178315;28;20353;-76
2023/09/16 08:48:06;;;;;;;28.50;25.67;;;;;;;19.55;78.93;95153.53;4186326;28;20361;-77
2023/09/16 08:50:09;;;;;;;28.10;24.95;;;;;;;19.57;79.32;95154.16;4194005;28;20056;-78
2023/09/16 08:52:15;;;;;;;27.88;25.08;;;;;;;19.70;79.33;95156.03;4175804;28;20064;-77
2023/09/16 08:54:18;;;;;;;28.67;25.67;;;;;;;19.73;78.43;95163.59;4172758;28;20052;-77
2023/09/16 08:56:20;;;;;;;28.33;25.35;;;;;;;19.90;78.30;95162.16;4177521;28;20136;-78
2023/09/16 08:58:22;;;;;;;29.02;25.92;;;;;;;20.02;77.64;95160.50;4185248;28;20059;-76
2023/09/16 09:00:24;;;;;;;28.85;25.98;;;;;;;20.21;77.58;95164.16;4188168;28;20040;-76
2023/09/16 09:02:27;;;;;;;28.60;25.63;;;;;;;20.46;77.52;95168.81;4176926;28;20057;-78
2023/09/16 09:04:28;;;;;;;27.65;25.05;;;;;;;20.60;77.02;95170.44;4181831;28;20049;-78
2023/09/16 09:06:31;;;;;;;28.95;26.08;;;;;;;20.73;76.79;95161.56;4184239;28;20083;-75
2023/09/16 09:08:41;;;;;;;30.27;27.13;;;;;;;20.93;76.10;95177.50;4182212;28;20451;-79
2023/09/16 09:10:43;;;;;;;27.15;24.55;;;;;;;20.97;75.04;95161.88;4181409;28;20067;-76
2023/09/16 09:12:45;;;;;;;35.53;32.05;;;;;;;21.06;74.91;95168.63;4170725;28;20055;-78
2023/09/16 09:14:47;;;;;;;41.15;36.72;;;;;;;21.12;74.58;95173.06;4184646;28;20525;-78
2023/09/16 09:16:50;;;;;;;29.42;26.25;;;;;;;21.16;74.70;95166.28;4158564;28;20054;-78
2023/09/16 09:18:56;;;;;;;22.63;20.33;;;;;;;21.15;72.96;95175.34;4174358;28;20053;-77
2023/09/16 09:20:57;;;;;;;19.17;17.23;;;;;;;20.61;72.48;95163.28;4185976;28;20481;-78
2023/09/16 09:22:59;;;;;;;20.02;17.92;;;;;;;20.57;73.39;95170.03;4185478;28;20055;-76
2023/09/16 09:25:01;;;;;;;21.02;18.95;;;;;;;20.64;74.02;95168.97;4189006;28;20463;-78